Nearby METAR Reports

 

KMTN - Baltimore/Martin, Maryland, USA
Distance from station: SSE 8mi, 13km
Updated: Tue, 21-Oct-2014 6:45pm EDT
Mostly cloudy
Mostly cloudy
 Wind from N
Wind: N 5 mph , 7 km/h
Temperature: 63°F , 17°C
Dew Point: 55°F , 13°C
Humidity: 77%
Barometer: 29.85 inHg , 1010.8 hPa
Clouds: Mostly cloudy
Visibility: 10 miles , 16 km
Cloud details: Mostly cloudy 5000 ft
Mostly cloudy 10000 ft
2014/10/21 22:45 KMTN 212245Z 36004KT 10SM BKN050 BKN100 17/13 A2985
KDMH - Baltimore/Dwntwn, Maryland, USA
Distance from station: SW 12mi, 19km
Updated: Tue, 21-Oct-2014 6:54pm EDT

 
Temperature: 64°F , 18°C
Dew Point: 50°F , 10°C
Humidity: 60%
Barometer: 29.84 inHg , 1010.5 hPa
2014/10/21 22:54 KDMH 212254Z AUTO 18/10 A2984 RMK AO1 SLP104 T01780100
 
KBWI - Balto/Wash Intl, Maryland, USA
Distance from station: SSW 20mi, 33km
Updated: Tue, 21-Oct-2014 7:34pm EDT
Heavy thunderstorm, Rain, Mist, Overcast
Heavy thunderstorm, Rain, Mist, Overcast
 Wind from W
Wind: W 12 mph , 19 km/h
Temperature: 54°F , 12°C
Dew Point: 52°F , 11°C
Humidity: 94%
Barometer: 29.86 inHg , 1011.2 hPa
Summary: Heavy thunderstorm, Rain, Mist
Clouds: Overcast
Visibility: 4 miles , 6 km
Cloud details: Partly cloudy 2600 ft
Mostly cloudy 3700 ft
Overcast 5000 ft
2014/10/21 23:34 KBWI 212334Z 27010KT 4SM +TSRA BR SCT026CB BKN037 OVC050 12/11 A2986 RMK AO2 TSE04B10 OCNL LTGICCG N TS N MOV NE P0047
KDMW - Carroll Cnty, Maryland, USA
Distance from station: WNW 30mi, 48km
Updated: Tue, 21-Oct-2014 7:30pm EDT
Rain, Overcast
Rain, Overcast
 Wind from WSW
Wind: WSW 6 mph , 9 km/h
Temperature: 54°F , 12°C
Dew Point: 52°F , 11°C
Humidity: 94%
Barometer: 29.89 inHg , 1012.2 hPa
Summary: Rain
Clouds: Overcast
Visibility: 10 miles , 16 km
Cloud details: Partly cloudy 600 ft
Partly cloudy 4400 ft
Overcast 6000 ft
2014/10/21 23:30 KDMW 212330Z AUTO 24005KT 10SM RA SCT006 SCT044 OVC060 12/11 A2989 RMK AO2 LTG DSNT SE
 
KNAK - Annapolis/Naval, Maryland, USA
Distance from station: S 30mi, 48km
Updated: Tue, 21-Oct-2014 6:54pm EDT
Overcast
Overcast
 Wind from NW
Wind: NW 3 mph , 6 km/h
Temperature: 63°F , 17°C
Dew Point: 54°F , 12°C
Humidity: 73%
Barometer: 29.83 inHg , 1010.2 hPa
Clouds: Overcast
Visibility: 10 miles , 16 km
Cloud details: Overcast 10000 ft
2014/10/21 22:54 KNAK 212254Z AUTO 31003KT 10SM OVC100 17/12 A2983 RMK AO2 SLP101 T01670122
KW29 - Stevensville, Maryland, USA
Distance from station: SSE 31mi, 50km
Updated: Tue, 21-Oct-2014 7:29pm EDT

 Wind from calm
Wind: Calm
Temperature: 63°F , 17°C
Dew Point: 46°F , 8°C
Humidity: 56%
Barometer: 29.84 inHg , 1010.5 hPa
Visibility: 10 miles , 16 km
2014/10/21 23:29 KW29 212329Z AUTO 00000KT 10SM 17/08 A2984 RMK AO1
 
KCGS - College Park, Maryland, USA
Distance from station: SW 38mi, 61km
Updated: Tue, 21-Oct-2014 7:25pm EDT
Overcast
Overcast
 Wind from N
Wind: N 5 mph , 7 km/h
Temperature: 55°F , 13°C
Dew Point: 54°F , 12°C
Humidity: 94%
Barometer: 29.87 inHg , 1011.5 hPa
Clouds: Overcast
Visibility: 10 miles , 16 km
Cloud details: Overcast 6500 ft
2014/10/21 23:25 KCGS 212325Z AUTO 35004KT 10SM OVC065 13/12 A2987 RMK AO1
KGAI - Gaithersburg, Maryland, USA
Distance from station: WSW 40mi, 65km
Updated: Tue, 21-Oct-2014 7:35pm EDT
Overcast
Overcast
 Wind from NNW
Wind: NNW 5 mph , 7 km/h
Temperature: 54°F , 12°C
Dew Point: 46°F , 8°C
Humidity: 77%
Barometer: 29.91 inHg , 1012.9 hPa
Clouds: Overcast
Visibility: 10 miles , 16 km
Cloud details: Overcast 8000 ft
2014/10/21 23:35 KGAI 212335Z 33004KT 10SM OVC080 12/08 A2991 RMK AO1 LTG DSNT E
 
KTHV - York, Pennsylvania, USA
Distance from station: NNW 40mi, 65km
Updated: Tue, 21-Oct-2014 6:53pm EDT
Overcast
Overcast
 Wind from W
Wind: W 5 mph , 7 km/h
Temperature: 54°F , 12°C
Dew Point: 50°F , 10°C
Humidity: 88%
Barometer: 29.87 inHg , 1011.5 hPa
Clouds: Overcast
Visibility: 10 miles , 16 km
Cloud details: Few Clouds 6000 ft
Overcast 9000 ft
2014/10/21 22:53 KTHV 212253Z AUTO 28004KT 10SM FEW060 OVC090 12/10 A2987 RMK AO2 RAE39 SLP117 P0001 T01220100
KFDK - Frederick, Maryland, USA
Distance from station: W 47mi, 75km
Updated: Tue, 21-Oct-2014 6:47pm EDT

 
Visibility: 55 miles
2014/10/21 22:47 KFDK 212247Z 34008G14 10SM SCT055 BKN075 OVC080 16/09 A2991
 
KESN - Easton/Newnam, Maryland, USA
Distance from station: SSE 48mi, 78km
Updated: Tue, 21-Oct-2014 6:50pm EDT
Mostly cloudy
Mostly cloudy
 Wind from calm
Wind: Calm
Temperature: 61°F , 16°C
Dew Point: 50°F , 10°C
Humidity: 68%
Barometer: 29.85 inHg , 1010.8 hPa
Clouds: Mostly cloudy
Visibility: 10 miles , 16 km
Cloud details: Partly cloudy 6000 ft
Mostly cloudy 12000 ft
2014/10/21 22:50 KESN 212250Z 00000KT 10SM SCT060 BKN120 16/10 A2985
KDCA - Washington/Natl, Washington D.c., USA
Distance from station: SW 49mi, 79km
Updated: Tue, 21-Oct-2014 6:52pm EDT
Light rain, Overcast
Light rain, Overcast
 Wind from NNW
Wind: NNW 13 mph , 20 km/h, Gust: 21 mph , 33 km/h
Temperature: 61°F , 16°C
Dew Point: 52°F , 11°C
Humidity: 72%
Barometer: 29.86 inHg , 1011.2 hPa
Summary: Light rain
Clouds: Overcast
Visibility: 10 miles , 16 km
Cloud details: Mostly cloudy 4800 ft
Overcast 6000 ft
2014/10/21 22:52 KDCA 212252Z 33011G18KT 10SM -RA BKN048 OVC060 16/11 A2986 RMK AO2 RAB40 SLP113 OCNL LTGIC DSNT S-SE CB DSNT S-SE MOV NE P0000 T01560106
 
KLNS - Lancaster, Pennsylvania, USA
Distance from station: N 49mi, 79km
Updated: Tue, 21-Oct-2014 6:53pm EDT
Mostly cloudy
Mostly cloudy
 Wind from N
Wind: N 5 mph , 7 km/h
Temperature: 55°F , 13°C
Dew Point: 48°F , 9°C
Humidity: 77%
Barometer: 29.85 inHg , 1010.8 hPa
Clouds: Mostly cloudy
Visibility: 7 miles , 11 km
Cloud details: Mostly cloudy 9000 ft
2014/10/21 22:53 KLNS 212253Z 35004KT 7SM BKN090 13/09 A2985 RMK AO2 SLP110 T01330094
KILG - Wilmington, Delaware, USA
Distance from station: ENE 50mi, 81km
Updated: Tue, 21-Oct-2014 6:51pm EDT
Clear
Clear
 Wind from NW
Wind: NW 6 mph , 9 km/h
Temperature: 57°F , 14°C
Dew Point: 52°F , 11°C
Humidity: 82%
Barometer: 29.84 inHg , 1010.5 hPa
Clouds: Clear
Visibility: 10 miles , 16 km
2014/10/21 22:51 KILG 212251Z 32005KT 10SM CLR 14/11 A2984 RMK AO2 SLP104 T01390111